City of Colorado Springs Municipal Airport
KCOS : now visible

Aeroporto :











RITROVATECI SU...

 
LOGIN :

Iscrizione | Disclaimer

   EN    FR    IT 

 









Sommario :    VFR   VFR Marginale   IFR   IFR Intensivo   IFR Molto Intensivo
Visibilità : 
Base nubi : 
>= 8 km
>= 3000ft
5 / 8 km
1000 / 3000 ft
1500m / 5 km
500 / 1000 ft
800 / 1500m
200 / 500 ft
< 800m
< 200 ft
Simboli :   Temporali  Nebbia  Neve Forte  Precipitazioni Forti  Vento > 20 kt







- Altitudine del aeroporto : 6187 ft
- Codice IATA : COS


KCOS - City of Colorado Springs Municipal

ULTIMO METAR :
  • 201354Z 35005KT 10SM FEW130 FEW170 SCT230 14/M01 A3002 RMK AO2 SLP108 T01441011

METARs OBSOLETI :
  • 201254Z 36006KT 10SM FEW140 FEW180 BKN240 08/M01 A3001 RMK AO2 SLP112 T00781011
  • 201154Z 02007KT 10SM FEW150 FEW180 SCT230 06/M02 A3001 RMK AO2 SLP110 T00561022 10122 20044 56008

TAF KCOS
Valido dal 20 a 12 ore il 21 a 12 ore UTC


201139Z 2012/2112 02007KT P6SM SCT250
FM201600 18009KT P6SM SCT250
FM202200 21014G24KT P6SM SCT140 BKN200
TEMPO 2022/2101 24020G40KT P6SM BKN140
FM210200 30012KT P6SM FEW140 BKN250
FM210800 36007KT P6SM SCT200
FIR KZDV / America del Nord



MetMap, La meteo Aeronautica in un colpo d'occhio ! - Copyright ORBIFLY Dicembre 2007 - Disclaimer

ORBIFLY MET'MAP TEAM :

Programmazione e sviluppo : Alexandra Zaïnal
Concezione e sviluppo : Baudouin d'Aumeries
Co-Programmazione e sviluppo : Marc-Olivier Méhu
Supporto tecnico e logistico : Manuel Goepfert
Aiuto per la traduzione : Arnaldo La Scala

Contatto : metmap@orbifly.com




FONTI E CREDITI :

   NOAA       Earth
Advisory